createdAt,value
2019-01-17T00:00:14.657Z,21.68
2019-01-17T00:03:22.610Z,19.98
2019-01-17T00:06:15.637Z,17.30
2019-01-17T00:08:58.105Z,17.90
2019-01-17T00:11:51.675Z,19.50
2019-01-17T00:14:51.297Z,16.40
2019-01-17T00:17:40.591Z,18.42
2019-01-17T00:20:39.414Z,14.85
2019-01-17T00:23:28.945Z,13.62
2019-01-17T00:26:25.976Z,16.93
2019-01-17T00:29:19.866Z,13.55
2019-01-17T00:32:02.861Z,14.43
2019-01-17T00:34:44.650Z,15.05
2019-01-17T00:37:33.603Z,20.37
2019-01-17T00:40:15.093Z,24.20
2019-01-17T00:43:09.988Z,19.32
2019-01-17T00:45:57.998Z,20.25
2019-01-17T00:48:46.023Z,17.40
2019-01-17T00:51:37.596Z,16.62
2019-01-17T00:54:27.107Z,15.68
2019-01-17T00:57:11.467Z,14.85
2019-01-17T00:59:55.096Z,19.77
2019-01-17T01:02:40.976Z,16.93
2019-01-17T01:05:29.827Z,17.82
2019-01-17T01:08:17.017Z,16.25
2019-01-17T01:11:07.513Z,14.95
2019-01-17T01:13:58.221Z,14.10
2019-01-17T01:17:04.236Z,15.58
2019-01-17T01:19:54.945Z,12.80
2019-01-17T01:22:44.446Z,12.65
2019-01-17T01:25:44.273Z,14.73
2019-01-17T01:28:38.070Z,19.57
2019-01-17T01:31:32.031Z,20.65
2019-01-17T01:34:22.730Z,19.85
2019-01-17T01:37:20.902Z,21.62
2019-01-17T01:40:17.516Z,24.23
2019-01-17T01:43:02.994Z,16.90
2019-01-17T01:46:12.134Z,18.55
2019-01-17T01:49:00.427Z,15.78
2019-01-17T01:51:41.213Z,17.90
2019-01-17T01:54:13.046Z,14.78
2019-01-17T01:56:44.882Z,14.23
2019-01-17T01:59:16.681Z,16.42
2019-01-17T02:01:48.504Z,15.32
2019-01-17T02:04:20.308Z,15.38
2019-01-17T02:06:52.140Z,12.85
2019-01-17T02:09:23.964Z,16.15
2019-01-17T02:11:55.791Z,13.38
2019-01-17T02:14:27.710Z,11.80
2019-01-17T02:16:59.601Z,11.78
2019-01-17T02:19:31.486Z,10.75
2019-01-17T02:22:03.329Z,10.70
2019-01-17T02:24:35.143Z,10.88
2019-01-17T02:27:06.983Z,13.22
2019-01-17T02:29:38.800Z,10.40
2019-01-17T02:32:10.623Z,10.32
2019-01-17T02:34:42.423Z,9.75
2019-01-17T02:37:14.248Z,11.85
2019-01-17T02:39:46.058Z,10.82
2019-01-17T02:42:17.576Z,10.87
2019-01-17T02:44:50.072Z,8.88
2019-01-17T02:47:21.890Z,11.53
2019-01-17T02:49:54.793Z,12.07
2019-01-17T02:52:26.605Z,9.13
2019-01-17T02:54:58.442Z,10.93
2019-01-17T02:57:30.251Z,10.00
2019-01-17T03:00:02.523Z,11.50
2019-01-17T03:02:34.335Z,9.30
2019-01-17T03:05:06.931Z,14.47
2019-01-17T03:07:38.722Z,9.35
2019-01-17T03:10:15.295Z,8.15
2019-01-17T03:12:47.114Z,10.32
2019-01-17T03:15:19.412Z,10.28
2019-01-17T03:17:51.229Z,7.33
2019-01-17T03:20:23.052Z,10.18
2019-01-17T03:22:55.959Z,9.40
2019-01-17T03:25:27.760Z,10.88
2019-01-17T03:27:59.590Z,7.95
2019-01-17T03:30:31.384Z,8.00
2019-01-17T03:33:03.981Z,9.83
2019-01-17T03:35:35.435Z,11.23
2019-01-17T03:38:07.262Z,11.28
2019-01-17T03:40:39.051Z,9.80
2019-01-17T03:43:11.684Z,10.17
2019-01-17T03:45:43.515Z,11.38
2019-01-17T03:48:16.444Z,10.68
2019-01-17T03:50:48.570Z,9.90
2019-01-17T03:53:26.325Z,10.38
2019-01-17T03:55:58.420Z,10.93
2019-01-17T03:58:29.956Z,10.03
2019-01-17T04:01:01.783Z,11.70
2019-01-17T04:03:33.594Z,9.00
2019-01-17T04:06:05.399Z,12.20
2019-01-17T04:08:37.192Z,10.08
2019-01-17T04:11:08.754Z,9.47
2019-01-17T04:13:40.529Z,9.48
2019-01-17T04:16:12.348Z,9.73
2019-01-17T04:18:44.139Z,9.83
2019-01-17T04:21:15.948Z,12.75
2019-01-17T04:23:47.775Z,9.98
2019-01-17T04:26:19.283Z,8.50
2019-01-17T04:28:50.827Z,9.10
2019-01-17T04:31:22.635Z,8.40
2019-01-17T04:33:56.930Z,9.57
2019-01-17T04:36:28.725Z,6.37
2019-01-17T04:39:00.548Z,8.55
2019-01-17T04:41:32.152Z,8.27
2019-01-17T04:44:03.713Z,10.00
2019-01-17T04:46:35.244Z,9.20
2019-01-17T04:49:06.797Z,8.70
2019-01-17T04:51:38.324Z,9.23
2019-01-17T04:54:12.459Z,9.05
2019-01-17T04:56:43.990Z,8.40
2019-01-17T04:59:15.567Z,7.60
2019-01-17T05:01:47.114Z,9.70
2019-01-17T05:04:21.737Z,8.73
2019-01-17T05:06:53.268Z,6.80
2019-01-17T05:09:25.084Z,6.90
2019-01-17T05:11:56.599Z,5.97
2019-01-17T05:14:28.386Z,7.23
2019-01-17T05:16:59.920Z,7.77
2019-01-17T05:19:31.471Z,7.03
2019-01-17T05:22:03.270Z,6.20
2019-01-17T05:24:36.173Z,6.03
2019-01-17T05:27:07.985Z,6.97
2019-01-17T05:29:39.517Z,8.00
2019-01-17T05:32:11.073Z,7.00
2019-01-17T05:34:42.598Z,6.80
2019-01-17T05:37:14.155Z,6.27
2019-01-17T05:39:47.618Z,5.93
2019-01-17T05:42:19.137Z,8.40
2019-01-17T05:44:50.984Z,7.90
2019-01-17T05:47:22.525Z,9.93
2019-01-17T05:49:54.084Z,8.17
2019-01-17T05:52:25.596Z,12.70
2019-01-17T05:54:57.147Z,9.00
2019-01-17T05:57:28.671Z,7.40
2019-01-17T06:00:00.480Z,7.22
2019-01-17T06:02:36.895Z,5.83
2019-01-17T06:05:08.804Z,6.07
2019-01-17T06:07:40.334Z,9.60
2019-01-17T06:10:12.992Z,8.90
2019-01-17T06:12:46.162Z,7.13
2019-01-17T06:15:20.671Z,5.77
2019-01-17T06:17:52.186Z,6.03
2019-01-17T06:20:23.887Z,5.40
2019-01-17T06:22:55.436Z,6.80
2019-01-17T06:25:28.139Z,6.43
2019-01-17T06:27:59.909Z,6.03
2019-01-17T06:30:37.195Z,9.13
2019-01-17T06:33:08.845Z,7.67
2019-01-17T06:35:40.393Z,10.00
2019-01-17T06:38:11.921Z,8.00
2019-01-17T06:40:43.500Z,8.93
2019-01-17T06:43:15.023Z,6.77
2019-01-17T06:45:46.578Z,7.57
2019-01-17T06:48:18.143Z,7.37
2019-01-17T06:50:50.056Z,13.30
2019-01-17T06:53:21.594Z,8.83
2019-01-17T06:55:53.158Z,8.00
2019-01-17T06:58:24.684Z,8.67
2019-01-17T07:00:56.237Z,10.13
2019-01-17T07:03:30.657Z,9.10
2019-01-17T07:06:02.207Z,8.33
2019-01-17T07:08:33.749Z,9.70
2019-01-17T07:11:05.296Z,9.30
2019-01-17T07:13:36.882Z,9.63
2019-01-17T07:16:08.408Z,8.90
2019-01-17T07:18:39.968Z,10.50
2019-01-17T07:21:13.100Z,9.50
2019-01-17T07:23:46.045Z,9.70
2019-01-17T07:26:17.587Z,10.40
2019-01-17T07:28:49.148Z,9.93
2019-01-17T07:31:22.291Z,10.27
2019-01-17T07:33:53.831Z,10.83
2019-01-17T07:36:25.356Z,9.60
2019-01-17T07:38:56.926Z,12.27
2019-01-17T07:41:28.471Z,10.10
2019-01-17T07:44:00.039Z,9.27
2019-01-17T07:46:31.698Z,10.63
2019-01-17T07:49:03.238Z,19.13
2019-01-17T07:51:34.768Z,8.33
2019-01-17T07:54:07.621Z,8.73
2019-01-17T07:56:39.542Z,10.43
2019-01-17T07:59:13.949Z,8.90
2019-01-17T08:01:45.481Z,8.30
2019-01-17T08:04:17.041Z,9.93
2019-01-17T08:06:48.626Z,9.67
2019-01-17T08:09:20.159Z,7.93
2019-01-17T08:11:51.788Z,7.60
2019-01-17T08:14:23.326Z,7.10
2019-01-17T08:16:54.989Z,7.67
2019-01-17T08:19:26.545Z,10.80
2019-01-17T08:22:00.835Z,7.90
2019-01-17T08:24:32.370Z,8.10
2019-01-17T08:27:03.920Z,7.10
2019-01-17T08:29:35.466Z,7.47
2019-01-17T08:32:07.017Z,7.77
2019-01-17T08:34:41.044Z,5.97
2019-01-17T08:37:12.577Z,6.67
2019-01-17T08:39:45.318Z,10.13
2019-01-17T08:42:16.851Z,6.30
2019-01-17T08:44:49.781Z,7.80
2019-01-17T08:47:21.319Z,7.67
2019-01-17T08:49:57.621Z,7.50
2019-01-17T08:52:27.574Z,7.00
2019-01-17T08:54:59.244Z,7.77
2019-01-17T08:57:30.808Z,5.90
2019-01-17T09:00:02.383Z,5.70
2019-01-17T09:02:33.907Z,6.80
2019-01-17T09:05:08.081Z,7.17
2019-01-17T09:07:39.607Z,5.77
2019-01-17T09:10:19.233Z,7.37
2019-01-17T09:12:53.700Z,5.83
2019-01-17T09:15:31.854Z,6.27
2019-01-17T09:18:04.708Z,6.20
2019-01-17T09:20:36.241Z,5.67
2019-01-17T09:23:08.873Z,7.20
2019-01-17T09:25:43.199Z,5.80
2019-01-17T09:28:14.710Z,5.90
2019-01-17T09:30:46.323Z,5.97
2019-01-17T09:33:17.851Z,6.57
2019-01-17T09:35:49.487Z,6.70
2019-01-17T09:38:21.055Z,6.40
2019-01-17T09:40:52.607Z,5.80
2019-01-17T09:43:24.138Z,7.83
2019-01-17T09:45:55.691Z,5.80
2019-01-17T09:48:27.240Z,8.47
2019-01-17T09:50:58.796Z,7.80
2019-01-17T09:53:30.377Z,9.27
2019-01-17T09:56:01.921Z,6.30
2019-01-17T09:58:33.451Z,7.87
2019-01-17T10:01:05.076Z,7.20
2019-01-17T10:03:36.604Z,6.40
2019-01-17T10:06:08.153Z,6.67
2019-01-17T10:08:39.782Z,6.80
2019-01-17T10:11:11.291Z,5.40
2019-01-17T10:13:42.865Z,6.70
2019-01-17T10:16:33.048Z,8.03
2019-01-17T10:20:06.523Z,7.17
2019-01-17T10:24:04.496Z,5.23
2019-01-17T10:27:38.414Z,5.60
2019-01-17T10:30:54.579Z,8.37
2019-01-17T10:33:45.089Z,5.90
2019-01-17T10:37:05.362Z,6.63
2019-01-17T10:40:46.021Z,6.00
2019-01-17T10:44:28.876Z,7.30
2019-01-17T10:48:01.718Z,7.30
2019-01-17T10:51:21.911Z,5.30
2019-01-17T10:54:54.295Z,6.30
2019-01-17T10:57:51.622Z,8.83
2019-01-17T11:01:26.265Z,3.77
2019-01-17T11:05:10.575Z,3.43
2019-01-17T11:08:08.973Z,2.80
2019-01-17T11:11:55.592Z,2.83
2019-01-17T11:14:49.082Z,2.40
2019-01-17T11:18:00.527Z,3.40
2019-01-17T11:21:22.887Z,1.70
2019-01-17T11:24:46.324Z,2.03
2019-01-17T11:28:00.807Z,2.57
2019-01-17T11:31:07.081Z,2.37
2019-01-17T11:34:15.567Z,1.87
2019-01-17T11:37:47.544Z,2.33
2019-01-17T11:41:06.133Z,2.07
2019-01-17T11:44:37.208Z,2.03
2019-01-17T11:48:01.493Z,3.73
2019-01-17T11:51:50.812Z,2.00
2019-01-17T11:55:04.355Z,4.20
2019-01-17T11:58:03.319Z,1.90
2019-01-17T12:01:16.835Z,2.20
2019-01-17T12:04:36.517Z,1.60
2019-01-17T12:07:19.584Z,3.10
2019-01-17T12:09:51.127Z,2.40
2019-01-17T12:12:25.902Z,3.33
2019-01-17T12:14:59.666Z,2.13
2019-01-17T12:17:31.233Z,2.07
2019-01-17T12:20:02.784Z,1.90
2019-01-17T12:22:34.450Z,2.40
2019-01-17T12:25:07.779Z,1.90
2019-01-17T12:27:43.498Z,2.30
2019-01-17T12:30:18.623Z,2.57
2019-01-17T12:32:50.165Z,2.37
2019-01-17T12:35:21.739Z,2.60
2019-01-17T12:37:53.259Z,1.80
2019-01-17T12:40:27.777Z,2.33
2019-01-17T12:42:59.292Z,3.13
2019-01-17T12:45:31.160Z,2.50
2019-01-17T12:48:02.754Z,2.73
2019-01-17T12:50:35.916Z,2.80
2019-01-17T12:53:09.834Z,2.97
2019-01-17T12:55:46.478Z,3.23
2019-01-17T12:58:20.709Z,2.60
2019-01-17T13:00:53.352Z,2.90
2019-01-17T13:03:24.896Z,2.00
2019-01-17T13:05:58.840Z,3.23
2019-01-17T13:08:31.488Z,3.30
2019-01-17T13:11:06.015Z,4.50
2019-01-17T13:13:38.967Z,5.90
2019-01-17T13:16:10.529Z,3.37
2019-01-17T13:18:44.277Z,4.43
2019-01-17T13:21:24.774Z,3.73
2019-01-17T13:23:56.340Z,2.93
2019-01-17T13:26:27.899Z,3.97
2019-01-17T13:28:59.467Z,2.97
2019-01-17T13:31:31.010Z,3.23
2019-01-17T13:34:02.582Z,3.03
2019-01-17T13:36:40.312Z,2.00
2019-01-17T13:39:09.901Z,2.23
2019-01-17T13:41:41.446Z,2.80
2019-01-17T13:44:13.021Z,3.13
2019-01-17T13:46:44.767Z,2.20
2019-01-17T13:49:16.347Z,2.30
2019-01-17T13:51:47.868Z,4.03
2019-01-17T13:54:22.504Z,2.60
2019-01-17T13:56:54.142Z,2.80
2019-01-17T13:59:25.667Z,4.40
2019-01-17T14:01:57.241Z,3.13
2019-01-17T14:04:28.803Z,2.70
2019-01-17T14:07:00.360Z,2.97
2019-01-17T14:09:33.484Z,3.60
2019-01-17T14:12:05.147Z,1.60
2019-01-17T14:14:36.672Z,2.60
2019-01-17T14:17:08.255Z,2.37
2019-01-17T14:19:39.805Z,2.50
2019-01-17T14:22:11.361Z,4.37
2019-01-17T14:24:42.901Z,1.60
2019-01-17T14:27:14.483Z,3.03
2019-01-17T14:29:46.035Z,2.77
2019-01-17T14:32:17.579Z,1.90
2019-01-17T14:34:49.125Z,2.50
2019-01-17T14:37:20.714Z,3.20
2019-01-17T14:39:52.259Z,3.13
2019-01-17T14:42:23.815Z,3.30
2019-01-17T14:44:55.357Z,3.83
2019-01-17T14:47:26.930Z,2.67
2019-01-17T14:49:58.470Z,2.70
2019-01-17T14:52:30.014Z,4.80
2019-01-17T14:55:04.129Z,2.57
2019-01-17T14:57:35.684Z,4.50
2019-01-17T15:00:12.491Z,2.30
2019-01-17T15:02:44.111Z,2.50
2019-01-17T15:05:16.110Z,7.63
2019-01-17T15:07:47.703Z,5.60
2019-01-17T15:10:26.494Z,3.70
2019-01-17T15:12:58.052Z,4.43
2019-01-17T15:15:29.591Z,6.00
2019-01-17T15:18:01.148Z,2.43
2019-01-17T15:20:32.685Z,3.10
2019-01-17T15:23:04.270Z,1.97
2019-01-17T15:25:35.798Z,2.80
2019-01-17T15:28:07.399Z,2.03
2019-01-17T15:30:38.952Z,4.20
2019-01-17T15:33:10.627Z,4.30
2019-01-17T15:35:42.324Z,3.77
2019-01-17T15:38:13.892Z,2.57
2019-01-17T15:40:45.443Z,2.03
2019-01-17T15:43:16.999Z,2.70
2019-01-17T15:45:48.550Z,4.60
2019-01-17T15:48:20.130Z,3.97
2019-01-17T15:50:51.739Z,3.00
2019-01-17T15:53:23.333Z,3.70
2019-01-17T15:55:54.954Z,2.97
2019-01-17T15:58:26.573Z,2.33
2019-01-17T16:01:02.666Z,2.90
2019-01-17T16:03:32.950Z,4.50
2019-01-17T16:06:04.545Z,2.93
2019-01-17T16:08:36.134Z,5.10
2019-01-17T16:11:07.677Z,2.37
2019-01-17T16:13:40.463Z,3.87
2019-01-17T16:16:12.026Z,5.10
2019-01-17T16:18:43.713Z,2.43
2019-01-17T16:21:17.416Z,2.57
2019-01-17T16:23:50.745Z,2.13
2019-01-17T16:26:24.063Z,1.97
2019-01-17T16:28:55.650Z,2.10
2019-01-17T16:31:27.175Z,1.97
2019-01-17T16:34:00.487Z,2.03
2019-01-17T16:36:32.213Z,1.90
2019-01-17T16:39:05.384Z,2.50
2019-01-17T16:41:37.110Z,3.03
2019-01-17T16:44:09.840Z,3.63
2019-01-17T16:46:43.628Z,3.10
2019-01-17T16:49:15.252Z,1.80
2019-01-17T16:51:50.928Z,2.53
2019-01-17T16:54:22.537Z,4.93
2019-01-17T16:56:55.291Z,5.43
2019-01-17T16:59:26.894Z,3.30
2019-01-17T17:02:01.511Z,2.07
2019-01-17T17:04:33.202Z,2.90
2019-01-17T17:07:04.759Z,3.30
2019-01-17T17:09:36.412Z,3.30
2019-01-17T17:12:07.972Z,5.30
2019-01-17T17:14:39.565Z,3.90
2019-01-17T17:17:11.383Z,5.03
2019-01-17T17:19:43.225Z,2.95
2019-01-17T17:22:16.012Z,2.03
2019-01-17T17:24:47.589Z,4.07
2019-01-17T17:27:19.250Z,2.70
2019-01-17T17:29:53.842Z,4.47
2019-01-17T17:32:28.201Z,3.80
2019-01-17T17:34:59.749Z,4.63
2019-01-17T17:37:31.773Z,3.45
2019-01-17T17:40:03.326Z,8.00
2019-01-17T17:42:34.970Z,4.13
2019-01-17T17:45:08.257Z,3.93
2019-01-17T17:47:40.155Z,2.33
2019-01-17T17:50:14.284Z,2.58
2019-01-17T17:52:46.147Z,3.92
2019-01-17T17:55:17.822Z,3.47
2019-01-17T17:57:50.668Z,3.00
2019-01-17T18:00:43.617Z,2.67
2019-01-17T18:03:15.464Z,2.10
2019-01-17T18:05:48.392Z,2.87
2019-01-17T18:08:24.421Z,3.90
2019-01-17T18:10:56.277Z,3.30
2019-01-17T18:13:28.115Z,3.80
2019-01-17T18:15:59.911Z,4.35
2019-01-17T18:18:31.833Z,3.30
2019-01-17T18:21:03.802Z,2.98
2019-01-17T18:23:35.656Z,3.00
2019-01-17T18:26:07.564Z,3.42
2019-01-17T18:28:39.883Z,2.52
2019-01-17T18:31:11.846Z,3.47
2019-01-17T18:33:43.827Z,3.58
2019-01-17T18:36:15.687Z,7.60
2019-01-17T18:38:47.532Z,4.08
2019-01-17T18:41:19.411Z,13.32
2019-01-17T18:43:51.361Z,18.15
2019-01-17T18:46:23.432Z,5.58
2019-01-17T18:48:55.297Z,3.67
2019-01-17T18:51:27.172Z,6.50
2019-01-17T18:54:00.651Z,4.47
2019-01-17T18:56:32.508Z,4.78
2019-01-17T18:59:05.525Z,4.05
2019-01-17T19:01:39.439Z,4.55
2019-01-17T19:04:13.032Z,4.40
2019-01-17T19:06:44.597Z,4.87
2019-01-17T19:09:16.466Z,5.45
2019-01-17T19:11:48.307Z,5.28
2019-01-17T19:14:20.167Z,5.87
2019-01-17T19:16:53.487Z,5.12
2019-01-17T19:19:25.112Z,6.43
2019-01-17T19:21:57.012Z,5.17
2019-01-17T19:24:28.868Z,4.45
2019-01-17T19:27:00.824Z,5.60
2019-01-17T19:29:32.492Z,5.23
2019-01-17T19:32:04.103Z,6.17
2019-01-17T19:34:38.050Z,7.17
2019-01-17T19:37:09.687Z,6.97
2019-01-17T19:39:41.296Z,4.90
2019-01-17T19:42:17.661Z,5.50
2019-01-17T19:44:56.203Z,4.90
2019-01-17T19:47:27.889Z,5.40
2019-01-17T19:49:59.507Z,4.40
2019-01-17T19:52:31.195Z,4.00
2019-01-17T19:55:05.596Z,4.30
2019-01-17T19:57:38.782Z,4.83
2019-01-17T20:00:13.220Z,5.67
2019-01-17T20:02:45.277Z,4.25
2019-01-17T20:05:20.654Z,5.37
2019-01-17T20:07:52.251Z,5.47
2019-01-17T20:10:30.679Z,5.40
2019-01-17T20:13:05.590Z,5.47
2019-01-17T20:15:38.641Z,4.65
2019-01-17T20:18:10.481Z,6.63
2019-01-17T20:20:42.112Z,5.20
2019-01-17T20:23:13.964Z,6.03
2019-01-17T20:25:45.878Z,4.62
2019-01-17T20:28:22.109Z,5.15
2019-01-17T20:30:55.771Z,7.17
2019-01-17T20:33:27.343Z,5.57
2019-01-17T20:35:59.277Z,5.47
2019-01-17T20:38:31.168Z,5.40
2019-01-17T20:41:03.068Z,5.17
2019-01-17T20:43:34.954Z,5.00
2019-01-17T20:46:06.901Z,6.53
2019-01-17T20:48:38.835Z,4.33
2019-01-17T20:51:12.769Z,5.57
2019-01-17T20:53:44.496Z,6.57
2019-01-17T20:56:16.056Z,5.70
2019-01-17T20:58:47.918Z,4.58
2019-01-17T21:02:08.063Z,5.25
2019-01-17T21:04:39.964Z,5.12
2019-01-17T21:07:13.284Z,5.37
2019-01-17T21:09:44.876Z,4.80
2019-01-17T21:12:16.831Z,6.78
2019-01-17T21:14:48.813Z,5.78
2019-01-17T21:17:23.439Z,9.00
2019-01-17T21:19:55.294Z,5.90
2019-01-17T21:22:26.861Z,7.93
2019-01-17T21:24:58.713Z,6.30
2019-01-17T21:27:30.648Z,5.90
2019-01-17T21:30:02.539Z,5.42
2019-01-17T21:32:34.386Z,4.58
2019-01-17T21:35:08.717Z,6.10
2019-01-17T21:37:40.582Z,4.85
2019-01-17T21:40:15.921Z,5.28
2019-01-17T21:42:47.845Z,5.35
2019-01-17T21:45:20.614Z,4.90
2019-01-17T21:47:53.532Z,6.53
2019-01-17T21:50:33.309Z,6.10
2019-01-17T21:53:08.259Z,5.50
2019-01-17T21:55:40.115Z,5.70
2019-01-17T21:58:16.535Z,5.90
2019-01-17T22:00:48.377Z,6.75
2019-01-17T22:03:20.232Z,6.80
2019-01-17T22:05:52.087Z,5.42
2019-01-17T22:08:26.037Z,6.37
2019-01-17T22:10:57.916Z,4.90
2019-01-17T22:13:29.747Z,5.28
2019-01-17T22:16:01.674Z,4.58
2019-01-17T22:18:33.505Z,3.42
2019-01-17T22:21:05.398Z,4.30
2019-01-17T22:23:37.417Z,5.17
2019-01-17T22:26:09.271Z,4.03
2019-01-17T22:28:41.151Z,9.08
2019-01-17T22:31:16.012Z,5.60
2019-01-17T22:33:47.849Z,5.78
2019-01-17T22:36:19.670Z,5.65
2019-01-17T22:38:51.526Z,5.10
2019-01-17T22:41:23.551Z,6.53
2019-01-17T22:43:55.422Z,4.72
2019-01-17T22:46:30.981Z,5.28
2019-01-17T22:49:02.831Z,6.80
2019-01-17T22:51:34.645Z,7.30
2019-01-17T22:54:07.702Z,6.40
2019-01-17T22:56:42.502Z,6.87
2019-01-17T22:59:14.353Z,5.47
2019-01-17T23:01:46.246Z,7.65
2019-01-17T23:04:18.077Z,7.42
2019-01-17T23:06:49.898Z,5.12
2019-01-17T23:09:21.750Z,6.78
2019-01-17T23:11:53.628Z,7.20
2019-01-17T23:14:28.475Z,9.35
2019-01-17T23:17:00.310Z,6.00
2019-01-17T23:19:33.625Z,9.13
2019-01-17T23:22:05.693Z,5.75
2019-01-17T23:24:37.498Z,5.42
2019-01-17T23:27:12.074Z,6.25
2019-01-17T23:29:43.907Z,4.78
2019-01-17T23:32:15.814Z,6.72
2019-01-17T23:34:50.173Z,6.25
2019-01-17T23:37:22.013Z,5.05
2019-01-17T23:39:55.896Z,6.65
2019-01-17T23:42:28.918Z,4.95
2019-01-17T23:45:00.732Z,6.28
2019-01-17T23:47:32.586Z,9.20
2019-01-17T23:50:04.699Z,6.70
2019-01-17T23:52:37.644Z,7.20
2019-01-17T23:55:12.489Z,9.58
2019-01-17T23:57:46.153Z,8.05
